createdAt,value
2023-04-12T00:02:28.303Z,58.03
2023-04-12T00:04:58.130Z,59.00
2023-04-12T00:07:26.255Z,60.23
2023-04-12T00:09:54.053Z,61.09
2023-04-12T00:12:22.134Z,63.50
2023-04-12T00:14:50.114Z,67.59
2023-04-12T00:17:19.443Z,66.89
2023-04-12T00:19:48.679Z,65.08
2023-04-12T00:22:16.986Z,63.85
2023-04-12T00:24:45.025Z,62.93
2023-04-12T00:27:12.868Z,59.80
2023-04-12T00:29:41.453Z,57.37
2023-04-12T00:32:10.755Z,57.76
2023-04-12T00:34:38.737Z,59.15
2023-04-12T00:37:06.563Z,60.34
2023-04-12T00:39:34.410Z,61.38
2023-04-12T00:42:05.814Z,65.17
2023-04-12T00:44:35.515Z,68.08
2023-04-12T00:47:05.564Z,66.51
2023-04-12T00:49:34.654Z,64.35
2023-04-12T00:52:08.731Z,63.05
2023-04-12T00:54:37.950Z,59.30
2023-04-12T00:57:06.455Z,56.52
2023-04-12T00:59:34.386Z,57.54
2023-04-12T01:02:03.383Z,58.53
2023-04-12T01:04:32.197Z,61.10
2023-04-12T01:07:15.873Z,63.51
2023-04-12T01:09:52.170Z,66.62
2023-04-12T01:12:38.684Z,63.93
2023-04-12T01:15:14.213Z,60.37
2023-04-12T01:18:22.317Z,56.91
2023-04-12T01:21:19.981Z,57.33
2023-04-12T01:23:59.732Z,58.16
2023-04-12T01:26:49.153Z,61.02
2023-04-12T01:29:20.799Z,61.10
2023-04-12T01:32:01.296Z,65.14
2023-04-12T01:34:31.704Z,67.13
2023-04-12T01:37:02.602Z,64.48
2023-04-12T01:39:33.310Z,62.45
2023-04-12T01:42:01.197Z,59.62
2023-04-12T01:44:29.865Z,57.21
2023-04-12T01:46:57.976Z,58.50
2023-04-12T01:49:36.663Z,60.04
2023-04-12T01:52:12.893Z,60.97
2023-04-12T01:54:44.687Z,64.87
2023-04-12T01:57:14.919Z,67.04
2023-04-12T01:59:44.641Z,63.84
2023-04-12T02:02:13.723Z,61.95
2023-04-12T02:04:43.078Z,58.78
2023-04-12T02:07:12.583Z,56.68
2023-04-12T02:09:40.501Z,58.62
2023-04-12T02:12:09.375Z,60.71
2023-04-12T02:14:37.451Z,61.55
2023-04-12T02:17:05.836Z,64.66
2023-04-12T02:19:34.152Z,66.76
2023-04-12T02:22:02.453Z,64.73
2023-04-12T02:24:30.440Z,62.99
2023-04-12T02:26:59.404Z,59.42
2023-04-12T02:29:27.937Z,56.52
2023-04-12T02:31:56.104Z,57.83
2023-04-12T02:34:25.599Z,58.83
2023-04-12T02:37:00.345Z,61.20
2023-04-12T02:39:29.340Z,64.64
2023-04-12T02:41:58.572Z,66.77
2023-04-12T02:44:29.709Z,64.21
2023-04-12T02:47:10.076Z,63.27
2023-04-12T02:49:38.514Z,58.70
2023-04-12T02:52:07.791Z,56.45
2023-04-12T02:54:41.806Z,57.21
2023-04-12T02:57:16.355Z,58.96
2023-04-12T02:59:46.688Z,59.97
2023-04-12T03:02:26.792Z,60.74
2023-04-12T03:04:59.264Z,64.77
2023-04-12T03:07:38.838Z,69.11
2023-04-12T03:10:07.893Z,64.84
2023-04-12T03:12:38.712Z,62.22
2023-04-12T03:15:14.880Z,57.84
2023-04-12T03:17:46.111Z,55.19
2023-04-12T03:20:14.613Z,55.89
2023-04-12T03:22:47.893Z,57.66
2023-04-12T03:25:18.098Z,58.80
2023-04-12T03:27:49.810Z,60.02
2023-04-12T03:30:18.665Z,61.43
2023-04-12T03:32:47.049Z,64.98
2023-04-12T03:35:15.351Z,67.38
2023-04-12T03:37:44.167Z,64.39
2023-04-12T03:40:13.635Z,62.32
2023-04-12T03:42:45.470Z,58.74
2023-04-12T03:45:15.004Z,56.29
2023-04-12T03:47:46.702Z,56.98
2023-04-12T03:50:15.241Z,58.27
2023-04-12T03:52:49.450Z,59.83
2023-04-12T03:55:18.535Z,61.13
2023-04-12T03:57:47.215Z,63.72
2023-04-12T04:00:16.045Z,66.36
2023-04-12T04:03:03.730Z,66.07
2023-04-12T04:05:35.556Z,63.01
2023-04-12T04:08:07.076Z,58.51
2023-04-12T04:10:43.023Z,56.30
2023-04-12T04:13:11.226Z,57.06
2023-04-12T04:15:39.756Z,58.22
2023-04-12T04:18:07.866Z,59.34
2023-04-12T04:20:36.123Z,60.53
2023-04-12T04:23:03.929Z,63.68
2023-04-12T04:25:32.026Z,65.94
2023-04-12T04:28:02.924Z,64.97
2023-04-12T04:30:34.450Z,62.70
2023-04-12T04:33:03.085Z,59.31
2023-04-12T04:35:31.712Z,56.69
2023-04-12T04:38:26.317Z,56.94
2023-04-12T04:41:02.482Z,58.35
2023-04-12T04:43:41.057Z,59.46
2023-04-12T04:46:08.967Z,60.60
2023-04-12T04:48:37.244Z,63.67
2023-04-12T04:51:05.491Z,66.32
2023-04-12T04:53:33.348Z,64.02
2023-04-12T04:56:01.565Z,63.35
2023-04-12T04:58:33.048Z,61.29
2023-04-12T05:01:00.961Z,58.21
2023-04-12T05:03:31.030Z,55.39
2023-04-12T05:06:01.548Z,56.03
2023-04-12T05:08:29.936Z,57.21
2023-04-12T05:10:58.406Z,60.19
2023-04-12T05:13:29.516Z,60.19
2023-04-12T05:15:57.773Z,62.95
2023-04-12T05:18:25.717Z,66.31
2023-04-12T05:20:53.936Z,64.53
2023-04-12T05:23:22.104Z,62.11
2023-04-12T05:25:52.089Z,58.13
2023-04-12T05:28:20.590Z,55.34
2023-04-12T05:30:48.669Z,55.88
2023-04-12T05:33:19.881Z,56.91
2023-04-12T05:35:48.136Z,58.18
2023-04-12T05:38:16.169Z,59.17
2023-04-12T05:40:44.452Z,60.31
2023-04-12T05:43:13.258Z,63.24
2023-04-12T05:45:42.098Z,64.58
2023-04-12T05:48:10.351Z,63.41
2023-04-12T05:50:38.783Z,62.23
2023-04-12T05:53:06.733Z,58.33
2023-04-12T05:55:37.789Z,55.50
2023-04-12T05:58:06.807Z,55.86
2023-04-12T06:00:36.413Z,57.08
2023-04-12T06:03:05.302Z,58.11
2023-04-12T06:05:34.323Z,59.20
2023-04-12T06:08:03.066Z,60.50
2023-04-12T06:10:31.746Z,63.34
2023-04-12T06:12:59.646Z,65.85
2023-04-12T06:15:28.308Z,63.60
2023-04-12T06:17:56.526Z,58.79
2023-04-12T06:20:24.692Z,55.51
2023-04-12T06:22:53.021Z,56.25
2023-04-12T06:25:23.129Z,57.65
2023-04-12T06:27:51.598Z,58.40
2023-04-12T06:30:21.144Z,59.16
2023-04-12T06:32:52.479Z,59.60
2023-04-12T06:35:21.683Z,60.43
2023-04-12T06:37:50.190Z,62.96
2023-04-12T06:40:18.049Z,65.24
2023-04-12T06:42:45.913Z,63.26
2023-04-12T06:45:14.459Z,59.18
2023-04-12T06:47:42.473Z,55.88
2023-04-12T06:50:11.221Z,55.73
2023-04-12T06:52:39.413Z,57.15
2023-04-12T06:55:07.981Z,58.07
2023-04-12T06:57:36.042Z,58.60
2023-04-12T07:00:04.627Z,59.26
2023-04-12T07:02:32.901Z,59.82
2023-04-12T07:05:01.281Z,60.62
2023-04-12T07:07:29.260Z,61.17
2023-04-12T07:09:57.095Z,63.68
2023-04-12T07:12:25.019Z,64.96
2023-04-12T07:14:52.848Z,63.38
2023-04-12T07:17:21.649Z,59.11
2023-04-12T07:19:50.450Z,55.65
2023-04-12T07:22:18.209Z,55.65
2023-04-12T07:24:46.111Z,56.94
2023-04-12T07:27:14.125Z,57.63
2023-04-12T07:29:42.077Z,58.71
2023-04-12T07:32:11.044Z,59.48
2023-04-12T07:34:39.651Z,60.02
2023-04-12T07:37:07.540Z,60.76
2023-04-12T07:39:36.366Z,63.27
2023-04-12T07:42:04.550Z,66.79
2023-04-12T07:44:35.595Z,63.97
2023-04-12T07:47:05.136Z,58.34
2023-04-12T07:49:32.973Z,54.33
2023-04-12T07:52:00.884Z,54.66
2023-04-12T07:54:29.266Z,55.59
2023-04-12T07:57:02.696Z,56.31
2023-04-12T07:59:31.765Z,56.92
2023-04-12T08:02:00.820Z,58.10
2023-04-12T08:04:29.181Z,60.41
2023-04-12T08:06:57.098Z,59.83
2023-04-12T08:09:25.893Z,59.95
2023-04-12T08:11:54.162Z,60.37
2023-04-12T08:14:22.246Z,60.92
2023-04-12T08:16:50.193Z,63.27
2023-04-12T08:19:20.433Z,66.75
2023-04-12T08:21:48.238Z,64.19
2023-04-12T08:24:16.577Z,59.27
2023-04-12T08:26:44.524Z,55.96
2023-04-12T08:29:12.933Z,55.59
2023-04-12T08:31:41.113Z,55.98
2023-04-12T08:34:09.028Z,56.57
2023-04-12T08:36:36.849Z,57.01
2023-04-12T08:39:04.679Z,58.21
2023-04-12T08:41:36.039Z,58.60
2023-04-12T08:44:05.631Z,59.04
2023-04-12T08:46:37.300Z,59.85
2023-04-12T08:49:05.485Z,59.94
2023-04-12T08:51:34.971Z,60.39
2023-04-12T08:54:02.808Z,60.35
2023-04-12T08:56:32.133Z,59.52
2023-04-12T08:59:01.035Z,59.60
2023-04-12T09:01:29.537Z,59.50
2023-04-12T09:03:57.931Z,59.22
2023-04-12T09:06:26.364Z,59.26
2023-04-12T09:08:55.927Z,59.50
2023-04-12T09:11:28.746Z,58.78
2023-04-12T09:14:58.562Z,59.92
2023-04-12T09:17:32.487Z,58.35
2023-04-12T09:20:17.737Z,58.66
2023-04-12T09:22:49.839Z,58.97
2023-04-12T09:25:18.823Z,58.94
2023-04-12T09:28:30.540Z,59.80
2023-04-12T09:31:07.084Z,58.37
2023-04-12T09:33:37.933Z,59.04
2023-04-12T09:36:15.961Z,59.28
2023-04-12T09:39:02.309Z,58.44
2023-04-12T09:41:32.342Z,58.80
2023-04-12T09:44:08.502Z,58.04
2023-04-12T09:46:56.730Z,57.09
2023-04-12T09:49:42.427Z,54.38
2023-04-12T09:52:13.010Z,56.10
2023-04-12T09:54:46.273Z,56.23
2023-04-12T09:57:18.097Z,56.63
2023-04-12T09:59:53.567Z,56.85
2023-04-12T10:02:32.349Z,57.04
2023-04-12T10:05:15.522Z,57.19
2023-04-12T10:07:47.878Z,56.77
2023-04-12T10:10:18.555Z,56.92
2023-04-12T10:12:53.232Z,56.46
2023-04-12T10:15:30.793Z,55.33
2023-04-12T10:19:01.070Z,55.83
2023-04-12T10:21:31.492Z,54.48
2023-04-12T10:24:01.276Z,54.61
2023-04-12T10:26:31.296Z,55.34
2023-04-12T10:29:26.668Z,54.92
2023-04-12T10:31:58.006Z,55.03
2023-04-12T10:34:32.140Z,52.99
2023-04-12T10:37:02.322Z,53.67
2023-04-12T10:39:42.820Z,53.28
2023-04-12T10:42:27.467Z,53.85
2023-04-12T10:45:17.002Z,54.14
2023-04-12T10:47:54.725Z,53.50
2023-04-12T10:50:25.349Z,52.77
2023-04-12T10:53:13.581Z,54.56
2023-04-12T10:55:42.976Z,53.44
2023-04-12T10:58:31.652Z,53.66
2023-04-12T11:00:59.568Z,52.53
2023-04-12T11:03:28.522Z,53.15
2023-04-12T11:06:20.136Z,53.15
2023-04-12T11:09:42.754Z,53.23
2023-04-12T11:12:15.430Z,52.18
2023-04-12T11:14:44.826Z,52.64
2023-04-12T11:17:12.852Z,52.69
2023-04-12T11:19:46.224Z,52.84
2023-04-12T11:22:16.160Z,52.79
2023-04-12T11:24:55.601Z,52.05
2023-04-12T11:27:25.715Z,52.51
2023-04-12T11:29:56.292Z,51.92
2023-04-12T11:32:27.650Z,49.62
2023-04-12T11:34:57.005Z,50.19
2023-04-12T11:37:27.319Z,50.93
2023-04-12T11:39:58.338Z,50.62
2023-04-12T11:42:29.339Z,51.76
2023-04-12T11:45:01.929Z,51.43
2023-04-12T11:47:31.977Z,51.53
2023-04-12T11:50:00.252Z,51.71
2023-04-12T11:52:30.754Z,51.90
2023-04-12T11:55:06.406Z,51.89
2023-04-12T11:57:35.014Z,51.05
2023-04-12T12:00:06.909Z,51.04
2023-04-12T12:02:52.341Z,50.99
2023-04-12T12:05:30.224Z,49.08
2023-04-12T12:08:00.074Z,47.44
2023-04-12T12:10:43.769Z,48.25
2023-04-12T12:13:15.548Z,49.66
2023-04-12T12:15:46.815Z,49.56
2023-04-12T12:18:14.723Z,49.92
2023-04-12T12:20:48.074Z,49.48
2023-04-12T12:23:32.800Z,50.38
2023-04-12T12:27:07.604Z,48.91
2023-04-12T12:28:53.763Z,49.66
2023-04-12T12:31:24.110Z,49.94
2023-04-12T12:33:59.843Z,49.60
2023-04-12T12:36:36.402Z,49.88
2023-04-12T12:39:10.654Z,49.64
2023-04-12T12:41:40.437Z,49.41
2023-04-12T12:44:09.028Z,49.19
2023-04-12T12:49:08.455Z,49.17
2023-04-12T12:51:36.633Z,49.01
2023-04-12T12:54:04.576Z,48.83
2023-04-12T12:56:32.529Z,48.75
2023-04-12T12:59:00.787Z,48.55
2023-04-12T13:01:28.697Z,48.21
2023-04-12T13:03:57.314Z,47.78
2023-04-12T13:06:28.499Z,48.15
2023-04-12T13:08:56.780Z,48.45
2023-04-12T13:11:25.069Z,48.42
2023-04-12T13:13:53.011Z,48.58
2023-04-12T13:16:21.058Z,48.60
2023-04-12T13:18:49.258Z,48.56
2023-04-12T13:21:17.124Z,48.21
2023-04-12T13:23:45.237Z,48.54
2023-04-12T13:26:13.074Z,48.38
2023-04-12T13:28:41.028Z,48.44
2023-04-12T13:31:08.895Z,48.41
2023-04-12T13:33:36.951Z,48.84
2023-04-12T13:36:05.216Z,48.84
2023-04-12T13:38:33.306Z,49.50
2023-04-12T13:41:01.268Z,49.70
2023-04-12T13:43:29.181Z,49.54
2023-04-12T13:45:57.183Z,50.03
2023-04-12T13:48:25.188Z,49.54
2023-04-12T13:50:54.320Z,49.20
2023-04-12T13:53:23.548Z,49.87
2023-04-12T13:55:51.586Z,49.64
2023-04-12T13:58:19.359Z,49.63
2023-04-12T14:00:47.526Z,49.57
2023-04-12T14:03:16.439Z,49.40
2023-04-12T14:05:44.862Z,49.65
2023-04-12T14:08:12.708Z,49.69
2023-04-12T14:10:40.988Z,49.87
2023-04-12T14:13:08.912Z,50.19
2023-04-12T14:15:36.880Z,50.27
2023-04-12T14:18:04.922Z,50.44
2023-04-12T14:20:32.966Z,50.79
2023-04-12T14:23:01.342Z,50.71
2023-04-12T14:25:29.317Z,50.91
2023-04-12T14:27:58.012Z,50.95
2023-04-12T14:30:26.394Z,51.05
2023-04-12T14:32:54.402Z,51.31
2023-04-12T14:35:22.484Z,51.60
2023-04-12T14:37:50.606Z,51.91
2023-04-12T14:40:19.286Z,52.28
2023-04-12T14:42:47.121Z,52.38
2023-04-12T14:45:15.759Z,52.60
2023-04-12T14:47:43.665Z,52.85
2023-04-12T14:50:11.637Z,53.26
2023-04-12T14:52:40.306Z,53.43
2023-04-12T14:55:10.566Z,53.31
2023-04-12T14:57:39.353Z,53.59
2023-04-12T15:00:13.893Z,53.57
2023-04-12T15:02:44.452Z,53.85
2023-04-12T15:05:12.600Z,53.87
2023-04-12T15:07:41.548Z,54.33
2023-04-12T15:10:11.070Z,54.80
2023-04-12T15:12:38.904Z,54.85
2023-04-12T15:15:07.933Z,54.67
2023-04-12T15:17:36.026Z,54.82
2023-04-12T15:20:15.894Z,55.03
2023-04-12T15:22:44.052Z,55.00
2023-04-12T15:25:12.081Z,55.01
2023-04-12T15:27:40.081Z,55.51
2023-04-12T15:30:14.550Z,55.68
2023-04-12T15:32:42.820Z,55.66
2023-04-12T15:35:25.358Z,55.69
2023-04-12T15:37:55.518Z,55.58
2023-04-12T15:40:24.388Z,55.88
2023-04-12T15:42:52.493Z,55.95
2023-04-12T15:45:20.421Z,55.52
2023-04-12T15:47:48.653Z,55.56
2023-04-12T15:50:16.716Z,55.63
2023-04-12T15:52:44.645Z,55.48
2023-04-12T15:55:13.002Z,55.48
2023-04-12T15:57:41.021Z,55.39
2023-04-12T16:00:21.082Z,54.64
2023-04-12T16:02:56.256Z,54.19
2023-04-12T16:05:25.084Z,54.21
2023-04-12T16:07:54.305Z,54.20
2023-04-12T16:10:25.546Z,54.28
2023-04-12T16:12:54.710Z,54.37
2023-04-12T16:15:22.925Z,54.59
2023-04-12T16:17:54.576Z,54.82
2023-04-12T16:20:24.475Z,54.80
2023-04-12T16:22:54.618Z,55.09
2023-04-12T16:25:24.454Z,55.00
2023-04-12T16:27:52.766Z,55.26
2023-04-12T16:30:22.630Z,55.42
2023-04-12T16:32:53.941Z,55.54
2023-04-12T16:35:21.968Z,55.70
2023-04-12T16:37:50.189Z,55.98
2023-04-12T16:40:18.347Z,56.24
2023-04-12T16:42:46.721Z,56.47
2023-04-12T16:45:15.394Z,56.81
2023-04-12T16:47:46.116Z,56.92
2023-04-12T16:50:15.606Z,57.15
2023-04-12T16:52:43.465Z,57.36
2023-04-12T16:55:12.393Z,57.56
2023-04-12T16:57:41.819Z,57.61
2023-04-12T17:00:22.291Z,57.96
2023-04-12T17:02:52.031Z,58.14
2023-04-12T17:05:21.678Z,58.26
2023-04-12T17:07:51.819Z,58.60
2023-04-12T17:10:24.827Z,58.68
2023-04-12T17:12:55.572Z,59.20
2023-04-12T17:15:25.440Z,59.25
2023-04-12T17:18:00.355Z,59.28
2023-04-12T17:20:29.356Z,59.66
2023-04-12T17:22:59.051Z,59.81
2023-04-12T17:25:31.334Z,60.16
2023-04-12T17:28:00.981Z,60.32
2023-04-12T17:30:29.209Z,60.52
2023-04-12T17:32:59.518Z,60.62
2023-04-12T17:35:27.926Z,60.83
2023-04-12T17:37:56.533Z,61.01
2023-04-12T17:40:24.470Z,60.96
2023-04-12T17:42:52.537Z,61.20
2023-04-12T17:45:21.930Z,61.22
2023-04-12T17:47:50.087Z,61.26
2023-04-12T17:50:18.000Z,61.52
2023-04-12T17:52:46.202Z,61.63
2023-04-12T17:55:14.038Z,61.89
2023-04-12T17:57:42.198Z,61.96
2023-04-12T18:00:13.619Z,62.10
2023-04-12T18:02:44.023Z,62.16
2023-04-12T18:05:13.579Z,62.09
2023-04-12T18:07:42.626Z,62.33
2023-04-12T18:10:15.444Z,64.59
2023-04-12T18:12:45.370Z,69.09
2023-04-12T18:15:13.350Z,66.21
2023-04-12T18:17:41.541Z,63.40
2023-04-12T18:20:11.005Z,59.71
2023-04-12T18:22:39.021Z,56.01
2023-04-12T18:25:08.315Z,55.62
2023-04-12T18:27:36.562Z,56.12
2023-04-12T18:30:05.404Z,56.68
2023-04-12T18:32:33.328Z,57.20
2023-04-12T18:35:02.199Z,57.81
2023-04-12T18:37:30.182Z,58.24
2023-04-12T18:39:58.599Z,58.80
2023-04-12T18:42:26.431Z,59.32
2023-04-12T18:44:56.430Z,59.74
2023-04-12T18:47:26.570Z,60.22
2023-04-12T18:49:55.243Z,60.59
2023-04-12T18:52:23.229Z,60.89
2023-04-12T18:54:51.490Z,61.20
2023-04-12T18:57:19.431Z,61.35
2023-04-12T18:59:49.130Z,61.81
2023-04-12T19:02:18.390Z,64.19
2023-04-12T19:04:47.562Z,68.64
2023-04-12T19:07:15.378Z,66.95
2023-04-12T19:09:43.410Z,63.81
2023-04-12T19:12:11.477Z,59.02
2023-04-12T19:14:39.449Z,55.03
2023-04-12T19:17:08.161Z,54.68
2023-04-12T19:19:36.399Z,55.29
2023-04-12T19:22:06.620Z,56.04
2023-04-12T19:24:35.186Z,56.87
2023-04-12T19:27:03.785Z,57.49
2023-04-12T19:29:31.726Z,58.15
2023-04-12T19:32:01.476Z,58.82
2023-04-12T19:34:29.535Z,59.37
2023-04-12T19:36:57.407Z,59.96
2023-04-12T19:39:27.069Z,60.51
2023-04-12T19:41:54.899Z,61.03
2023-04-12T19:44:23.400Z,61.57
2023-04-12T19:46:52.271Z,64.14
2023-04-12T19:49:22.366Z,68.87
2023-04-12T19:51:54.537Z,67.02
2023-04-12T19:54:25.584Z,64.14
2023-04-12T19:56:53.694Z,59.40
2023-04-12T19:59:21.928Z,55.64
2023-04-12T20:01:50.558Z,55.51
2023-04-12T20:04:21.405Z,56.17
2023-04-12T20:06:52.264Z,56.99
2023-04-12T20:09:25.457Z,57.79
2023-04-12T20:11:53.381Z,58.52
2023-04-12T20:14:21.824Z,59.26
2023-04-12T20:16:50.057Z,59.99
2023-04-12T20:19:18.277Z,60.66
2023-04-12T20:21:47.564Z,61.26
2023-04-12T20:24:15.480Z,63.78
2023-04-12T20:26:46.636Z,68.05
2023-04-12T20:29:15.261Z,66.23
2023-04-12T20:31:43.542Z,64.43
2023-04-12T20:34:11.446Z,60.28
2023-04-12T20:36:39.375Z,56.00
2023-04-12T20:39:07.215Z,55.79
2023-04-12T20:41:38.530Z,56.55
2023-04-12T20:44:06.676Z,57.43
2023-04-12T20:46:36.911Z,58.31
2023-04-12T20:49:06.898Z,59.12
2023-04-12T20:51:34.718Z,59.81
2023-04-12T20:54:03.317Z,60.56
2023-04-12T20:56:31.321Z,61.23
2023-04-12T20:59:00.954Z,63.70
2023-04-12T21:01:28.792Z,68.86
2023-04-12T21:03:59.796Z,67.58
2023-04-12T21:06:28.428Z,65.09
2023-04-12T21:08:56.608Z,59.86
2023-04-12T21:11:27.323Z,55.23
2023-04-12T21:13:55.169Z,54.98
2023-04-12T21:16:25.183Z,55.88
2023-04-12T21:18:53.845Z,56.70
2023-04-12T21:21:22.600Z,57.61
2023-04-12T21:23:51.976Z,58.50
2023-04-12T21:26:20.805Z,59.28
2023-04-12T21:28:48.768Z,59.96
2023-04-12T21:31:17.658Z,60.70
2023-04-12T21:33:45.467Z,61.35
2023-04-12T21:36:13.334Z,64.63
2023-04-12T21:38:41.408Z,69.16
2023-04-12T21:41:12.004Z,67.73
2023-04-12T21:43:41.056Z,65.02
2023-04-12T21:46:09.193Z,59.45
2023-04-12T21:48:37.512Z,54.65
2023-04-12T21:51:06.298Z,54.54
2023-04-12T21:53:34.079Z,55.49
2023-04-12T21:56:02.110Z,56.50
2023-04-12T21:58:30.183Z,57.45
2023-04-12T22:00:58.515Z,58.43
2023-04-12T22:03:26.479Z,59.33
2023-04-12T22:06:04.357Z,60.17
2023-04-12T22:08:33.374Z,60.77
2023-04-12T22:11:01.644Z,63.58
2023-04-12T22:13:30.988Z,66.83
2023-04-12T22:16:00.917Z,65.87
2023-04-12T22:18:28.737Z,63.54
2023-04-12T22:20:57.901Z,59.46
2023-04-12T22:23:26.265Z,55.87
2023-04-12T22:25:58.574Z,55.98
2023-04-12T22:28:26.639Z,56.83
2023-04-12T22:30:57.235Z,57.83
2023-04-12T22:33:25.301Z,58.69
2023-04-12T22:35:53.402Z,59.61
2023-04-12T22:38:21.651Z,60.42
2023-04-12T22:40:49.819Z,61.16
2023-04-12T22:43:21.056Z,64.42
2023-04-12T22:45:48.947Z,68.84
2023-04-12T22:48:16.872Z,65.81
2023-04-12T22:50:47.783Z,63.71
2023-04-12T22:53:16.016Z,59.95
2023-04-12T22:55:45.049Z,56.00
2023-04-12T22:58:12.992Z,55.89
2023-04-12T23:00:41.152Z,56.71
2023-04-12T23:03:11.384Z,57.67
2023-04-12T23:05:44.842Z,58.64
2023-04-12T23:08:18.059Z,59.42
2023-04-12T23:10:46.242Z,60.22
2023-04-12T23:13:14.150Z,60.99
2023-04-12T23:15:45.337Z,63.88
2023-04-12T23:18:13.483Z,67.38
2023-04-12T23:20:44.906Z,66.47
2023-04-12T23:23:12.755Z,64.59
2023-04-12T23:25:45.519Z,62.64
2023-04-12T23:28:15.630Z,58.45
2023-04-12T23:30:49.044Z,55.03
2023-04-12T23:33:20.327Z,55.11
2023-04-12T23:35:52.810Z,56.04
2023-04-12T23:38:32.406Z,57.05
2023-04-12T23:41:02.587Z,57.89
2023-04-12T23:43:34.992Z,58.90
2023-04-12T23:46:03.267Z,59.80
2023-04-12T23:48:32.883Z,60.57
2023-04-12T23:51:00.874Z,63.05
2023-04-12T23:53:28.734Z,67.89
2023-04-12T23:55:56.741Z,66.96
2023-04-12T23:58:26.201Z,64.98
